Historyczne dane pomiarowe

Dodano dane terminowe – wersja testowa.

Dane z okresu 1951-2019

Wersja bazy: 1.34 [2019-03-16, lista zmian], aktualizacja planowana na 2019-04-15

Dane meteo z obszaru Polski uzyskane na podstawie danych udostępnionych przez Instytut Meteorologii i Gospodarki Wodnej – Państwowy Instytut Badawczy.

 

Wybierz Datę:    

       

TemperaturaWilgotnośćZachmurzenieWiatrCiśnienieWidzialnośćZjawiska
 Data    tng td wb rh cc ccl cl cm ch dir g1 g2 mslp ppp      
1999-06-21 00:00:00 16.3--- 16.3 16.3100wxwxwx0wx--1008.3 986.5 0.0---wxw1
1999-06-21 01:00:00 16.0--- 16.0 16.0100wxwxwx0wx--1007.9 986.0----wxw1
1999-06-21 02:00:00 16.0--- 16.0 16.0100wxwxwx1wx--1007.4 985.6----wx
1999-06-21 03:00:00 16.0--- 15.4 15.696wxwxwx0wx--1007.1 985.3----wxw1
1999-06-21 04:00:00 17.0--- 16.2 16.595wxwxwx0wx--1006.6 984.8----wx
1999-06-21 05:00:00 18.4--- 17.5 17.894wxwxwx1wx--1006.4 984.8----wx
1999-06-21 06:00:00 19.8--- 18.6 19.093wxwxwx1wx--1006.3 984.8 0.0---wxw1
1999-06-21 07:00:00 20.4--- 16.7 18.079wxwxwx2wx--1006.1 984.6----wx
1999-06-21 08:00:00 21.2--- 16.9 18.476wxwxwx3wx--1005.8 984.4----wx
1999-06-21 09:00:00 20.5--- 15.8 17.574wxwxwx4wx--1005.9 984.4----wx
1999-06-21 10:00:00 19.9--- 16.8 17.982wxwxwx3wx--1005.9 984.4----wx
1999-06-21 11:00:00 20.0--- 15.1 16.973wxwxwx1wx--1005.5 984.0----wx
1999-06-21 12:00:00 21.5--- 15.0 17.466wxwxwx2wx--1004.9 983.5 0.0---wxw1
1999-06-21 13:00:00 22.0--- 15.6 17.967wxwxwxwx3wx--1004.7 983.3----wx
1999-06-21 14:00:00 22.2--- 15.3 17.865wxwxwxwx3wx--1004.4 983.1----wx
1999-06-21 15:00:00 21.8--- 15.1 17.666wxwxwxwx2wx--1003.7 982.4----wx
1999-06-21 16:00:00 22.8--- 15.4 18.163wxwxwxwx2wx--1003.9 982.6----wx
1999-06-21 17:00:00 18.8--- 14.8 16.377wxwxwxwx5wx--1005.0 983.4----wx
1999-06-21 18:00:00 18.1--- 14.9 16.181wxwxwxwx3wx--1005.0 983.4 0.0---wx
1999-06-21 19:00:00 17.2--- 14.6 15.685wxwxwx2wx--1005.1 983.4----wx
1999-06-21 20:00:00 16.4--- 14.6 15.389wxwxwx2wx--1006.1 984.3----wx
1999-06-21 21:00:00 15.4--- 13.6 14.389wxwxwx3wx--1006.5 984.6----wxw1
1999-06-21 22:00:00 15.4--- 14.6 14.995wxwxwx3wx--1006.3 984.4----wx
1999-06-21 23:00:00 15.6--- 14.6 15.094wxwxwx1wx--1006.5 984.6----wx

 

Źródłem pochodzenia danych jest Instytut Meteorologii i Gospodarki Wodnej – Państwowy Instytut Badawczy. Dane Instytutu Meteorologii i Gospodarki Wodnej – Państwowego Instytutu Badawczego zostały przetworzone.

Dane źródłowe można odnaleźć na stronie https://dane.imgw.pl